createdAt,value
2022-10-29T00:12:23.223Z,1885.41022
2022-10-29T00:27:25.452Z,1753.40818
2022-10-29T00:42:27.803Z,1426.4118
2022-10-29T00:57:30.037Z,1273.62787
2022-10-29T01:12:32.296Z,1224.04895
2022-10-29T01:27:34.631Z,1143.89703
2022-10-29T01:42:36.858Z,1102.88437
2022-10-29T01:57:39.048Z,1106.33358
2022-10-29T02:12:41.309Z,1036.63054
2022-10-29T02:27:43.527Z,1000.70771
2022-10-29T02:42:45.777Z,1044.28094
2022-10-29T02:57:48.017Z,1015.79375
2022-10-29T03:12:50.368Z,1004.97209
2022-10-29T03:27:52.717Z,1001.41593
2022-10-29T03:42:55.215Z,1018.719
2022-10-29T03:57:57.850Z,1063.91028
2022-10-29T04:13:00.383Z,1128.38966
2022-10-29T04:43:35.064Z,1136.54669
2022-10-29T04:58:37.395Z,1117.69403
2022-10-29T05:13:39.759Z,1044.28094
2022-10-29T05:28:42.062Z,1048.92563
2022-10-29T05:43:44.353Z,1015.79375
2022-10-29T05:58:46.672Z,1015.79375
2022-10-29T06:13:49.038Z,1000.70771
2022-10-29T06:28:51.333Z,1008.5536
2022-10-29T06:43:53.674Z,1016.52349
2022-10-29T06:58:56.047Z,997.88484
2022-10-29T07:13:58.337Z,989.51099
2022-10-29T07:29:00.705Z,992.28661
2022-10-29T07:44:03.030Z,985.37654
2022-10-29T07:59:05.414Z,1006.40164
2022-10-29T08:14:07.700Z,1054.39692
2022-10-29T08:29:10.008Z,1063.91028
2022-10-29T08:44:12.501Z,1078.5066
2022-10-29T08:59:14.810Z,1103.74465
2022-10-29T09:14:17.086Z,1093.509
2022-10-29T09:29:19.373Z,1119.46253
2022-10-29T09:44:21.708Z,1116.81187
2022-10-29T09:59:24.038Z,1141.12954
2022-10-29T10:14:26.394Z,1149.47248
2022-10-29T10:29:28.691Z,1140.21001
2022-10-29T10:44:30.940Z,1132.90683
2022-10-29T10:59:33.216Z,1117.69403
2022-10-29T11:14:35.467Z,1101.16782
2022-10-29T11:29:37.684Z,1101.16782
2022-10-29T11:44:39.875Z,1088.46204
2022-10-29T11:59:42.377Z,1090.13918
2022-10-29T12:14:44.636Z,1070.34846
2022-10-29T12:29:46.927Z,1053.61182
2022-10-29T12:44:49.240Z,1013.61082
2022-10-29T12:59:51.483Z,977.21044
2022-10-29T13:14:53.687Z,896.70519
2022-10-29T13:29:56.077Z,878.88249
2022-10-29T13:44:58.393Z,868.09866
2022-10-29T14:00:00.605Z,860.70609
2022-10-29T14:15:03.125Z,859.66028
2022-10-29T14:30:05.484Z,881.07148
2022-10-29T14:45:07.730Z,842.76405
2022-10-29T15:00:09.949Z,836.28891
2022-10-29T15:15:12.204Z,846.79882
2022-10-29T15:30:14.469Z,846.29236
2022-10-29T15:45:16.900Z,834.31653
2022-10-29T16:00:19.331Z,836.78347
2022-10-29T16:15:21.645Z,845.28126
2022-10-29T16:30:23.945Z,867.03481
2022-10-29T16:45:26.211Z,863.85886
2022-10-29T17:00:28.450Z,900.12772
2022-10-29T17:15:30.779Z,920.02651
2022-10-29T17:30:33.188Z,945.85611
2022-10-29T17:45:35.429Z,1059.9256
2022-10-29T18:00:37.604Z,1108.93467
2022-10-29T18:15:39.844Z,1115.9311
2022-10-29T18:30:42.154Z,1252.2129
2022-10-29T18:45:44.340Z,1329.88773
2022-10-29T19:00:46.643Z,1633.00684
2022-10-29T19:15:48.901Z,1629.24632
2022-10-29T19:30:51.084Z,1992.95825
2022-10-29T19:45:53.315Z,2362.27096
2022-10-29T20:00:55.692Z,2625.23243
2022-10-29T20:15:57.931Z,3092.89666
2022-10-29T20:31:00.261Z,3442.82287
2022-10-29T20:46:02.478Z,3618.92632
2022-10-29T21:01:04.741Z,3721.23652
2022-10-29T21:16:07.168Z,4101.44978
2022-10-29T21:31:09.404Z,4063.17351
2022-10-29T21:46:11.641Z,4271.69862
2022-10-29T22:01:14.011Z,4446.19061
2022-10-29T22:16:16.431Z,4374.03451
2022-10-29T22:31:18.912Z,4320.61119
2022-10-29T22:46:21.136Z,4343.82246
2022-10-29T23:01:23.694Z,4568.20068
2022-10-29T23:16:26.071Z,4571.89066
2022-10-29T23:31:28.427Z,4146.52065
2022-10-29T23:46:30.655Z,3985.91599
